Bonita, Louisiana
Current Conditions -  °F | °C
As of 12:15 PM on Friday 28 Nov 2014 (Local Time) from KBQP Reporting Station
Clear Clear  
Wind Chill: 55°   Ceiling: Unl
Heat Index: 55°   Visibility: 10mi
Dew Point: 34°   Wind: 7mph
Humidity: 45%   Direction: 170°S
Pressure: 30.31"   Gusts: NA
Location:  32.92°N, 91.68°W
Report Text: KBQP 281815Z AUTO 17006KT 10SM CLR 13/01 A3031 RMK AO2 T01280010
Loading
Personal Weather Stations






























Interactive Weather Map New forecast layout! Learn more

10-Day Weather Forecast

Advertisements
Track Severe Weather on mobile